Navarino, Wisconsin
Current Conditions -  °F | °C
As of 4:35 PM on Wednesday 22 Oct 2014 (Local Time) from KEZS Reporting Station
Clear Clear  
Wind Chill: 56°   Ceiling: Unl
Heat Index: 56°   Visibility: 10mi
Dew Point: 38°   Wind: 7mph
Humidity: 51%   Direction: 140°SE
Pressure: 30.27"   Gusts: NA
Location:  44.7353°N, 88.4379°W
Report Text: KEZS 222135Z AUTO 14006KT 10SM CLR 13/03 A3027 RMK AO2 T01310031
Loading
Personal Weather Stations






























Interactive Weather Map New forecast layout! Learn more

10-Day Weather Forecast

Advertisements
Track Severe Weather on mobile